createdAt,value
2023-05-21T00:01:23.593Z,75.95
2023-05-21T00:05:26.708Z,75.81
2023-05-21T00:09:29.930Z,76.05
2023-05-21T00:13:34.492Z,76.10
2023-05-21T00:17:37.930Z,76.01
2023-05-21T00:21:41.143Z,76.13
2023-05-21T00:25:44.273Z,76.40
2023-05-21T00:29:48.607Z,76.52
2023-05-21T00:33:52.461Z,76.26
2023-05-21T00:37:55.466Z,76.60
2023-05-21T00:41:58.593Z,76.62
2023-05-21T00:46:03.112Z,76.57
2023-05-21T00:50:07.563Z,76.55
2023-05-21T00:54:10.628Z,76.36
2023-05-21T00:58:14.283Z,76.50
2023-05-21T01:02:18.984Z,76.41
2023-05-21T01:06:22.072Z,76.48
2023-05-21T01:10:25.591Z,76.46
2023-05-21T01:14:29.014Z,76.45
2023-05-21T01:18:35.165Z,76.24
2023-05-21T01:22:43.592Z,76.06
2023-05-21T01:26:48.445Z,76.20
2023-05-21T01:30:51.853Z,76.11
2023-05-21T01:35:00.955Z,76.03
2023-05-21T01:39:10.140Z,76.09
2023-05-21T01:43:16.285Z,76.07
2023-05-21T01:47:19.971Z,76.25
2023-05-21T01:51:23.263Z,76.22
2023-05-21T01:55:26.999Z,76.05
2023-05-21T01:59:31.958Z,76.29
2023-05-21T02:03:35.198Z,76.31
2023-05-21T02:07:38.692Z,76.33
2023-05-21T02:11:41.933Z,76.26
2023-05-21T02:15:47.122Z,76.51
2023-05-21T02:19:50.230Z,76.36
2023-05-21T02:23:53.202Z,76.51
2023-05-21T02:27:56.839Z,76.67
2023-05-21T02:32:01.402Z,76.63
2023-05-21T02:36:05.175Z,76.61
2023-05-21T02:40:10.025Z,76.64
2023-05-21T02:44:13.388Z,77.06
2023-05-21T02:48:17.914Z,77.19
2023-05-21T02:52:22.259Z,77.40
2023-05-21T02:56:26.247Z,77.25
2023-05-21T03:00:29.410Z,77.18
2023-05-21T03:04:39.263Z,77.40
2023-05-21T03:08:42.432Z,77.82
2023-05-21T03:12:45.717Z,77.65
2023-05-21T03:16:49.195Z,77.75
2023-05-21T03:20:55.552Z,77.77
2023-05-21T03:24:58.793Z,77.75
2023-05-21T03:29:02.469Z,78.00
2023-05-21T03:33:06.571Z,78.08
2023-05-21T03:37:11.525Z,78.22
2023-05-21T03:41:14.770Z,78.14
2023-05-21T03:45:21.676Z,78.54
2023-05-21T03:49:38.682Z,78.59
2023-05-21T03:53:44.000Z,78.85
2023-05-21T03:57:47.088Z,78.95
2023-05-21T04:01:51.443Z,79.40
2023-05-21T04:05:54.572Z,79.40
2023-05-21T04:09:59.004Z,79.82
2023-05-21T04:14:02.923Z,79.88
2023-05-21T04:18:07.328Z,80.03
2023-05-21T04:22:11.595Z,80.11
2023-05-21T04:26:16.830Z,80.24
2023-05-21T04:30:20.140Z,80.72
2023-05-21T04:34:23.703Z,80.72
2023-05-21T04:38:26.844Z,80.72
2023-05-21T04:42:33.062Z,81.00
2023-05-21T04:46:39.676Z,81.05
2023-05-21T04:50:44.873Z,81.31
2023-05-21T04:54:48.008Z,81.49
2023-05-21T04:58:52.905Z,81.97
2023-05-21T05:02:56.485Z,82.18
2023-05-21T05:06:59.614Z,82.63
2023-05-21T05:11:02.981Z,82.55
2023-05-21T05:15:08.669Z,82.81
2023-05-21T05:19:12.909Z,83.08
2023-05-21T05:23:16.338Z,82.76
2023-05-21T05:27:19.504Z,82.87
2023-05-21T05:31:24.271Z,82.43
2023-05-21T05:35:28.869Z,82.12
2023-05-21T05:39:32.889Z,81.56
2023-05-21T05:43:36.672Z,81.01
2023-05-21T05:47:41.727Z,80.25
2023-05-21T05:51:45.160Z,79.55
2023-05-21T05:55:48.345Z,78.91
2023-05-21T05:59:51.684Z,77.85
2023-05-21T06:03:57.422Z,76.85
2023-05-21T06:08:01.560Z,76.12
2023-05-21T06:12:05.064Z,74.88
2023-05-21T06:16:10.066Z,74.14
2023-05-21T06:20:15.078Z,73.57
2023-05-21T06:24:18.447Z,73.05
2023-05-21T06:28:21.699Z,72.63
2023-05-21T06:32:26.598Z,71.62
2023-05-21T06:36:32.538Z,70.46
2023-05-21T06:40:36.330Z,69.58
2023-05-21T06:44:39.745Z,69.10
2023-05-21T06:49:14.499Z,68.93
2023-05-21T06:53:20.336Z,67.83
2023-05-21T06:57:23.380Z,67.46
2023-05-21T07:01:26.526Z,66.24
2023-05-21T07:05:30.813Z,65.68
2023-05-21T07:09:35.256Z,64.73
2023-05-21T07:13:38.456Z,65.69
2023-05-21T07:17:41.728Z,64.08
2023-05-21T07:21:44.959Z,63.94
2023-05-21T07:25:49.548Z,62.77
2023-05-21T07:29:52.994Z,62.25
2023-05-21T07:33:59.021Z,61.59
2023-05-21T07:38:07.699Z,61.40
2023-05-21T07:42:12.157Z,60.63
2023-05-21T07:46:15.467Z,60.84
2023-05-21T07:50:19.416Z,59.28
2023-05-21T07:54:22.615Z,60.05
2023-05-21T07:58:27.170Z,59.66
2023-05-21T08:02:30.574Z,59.39
2023-05-21T08:06:34.674Z,58.40
2023-05-21T08:10:37.982Z,58.91
2023-05-21T08:14:42.721Z,57.36
2023-05-21T08:18:47.829Z,57.15
2023-05-21T08:22:51.190Z,56.61
2023-05-21T08:26:54.435Z,56.47
2023-05-21T08:30:59.028Z,56.37
2023-05-21T08:35:02.497Z,55.69
2023-05-21T08:39:29.788Z,56.23
2023-05-21T08:43:34.719Z,55.40
2023-05-21T08:47:43.165Z,54.60
2023-05-21T08:51:48.111Z,54.21
2023-05-21T08:55:55.736Z,53.27
2023-05-21T08:59:59.276Z,53.89
2023-05-21T09:04:19.469Z,52.88
2023-05-21T09:08:30.918Z,52.04
2023-05-21T09:12:41.592Z,52.17
2023-05-21T09:16:48.242Z,52.57
2023-05-21T09:20:54.091Z,51.95
2023-05-21T09:24:58.297Z,51.46
2023-05-21T09:29:02.305Z,50.85
2023-05-21T09:33:06.089Z,50.52
2023-05-21T09:37:23.784Z,49.59
2023-05-21T09:41:36.837Z,49.99
2023-05-21T09:45:52.606Z,50.39
2023-05-21T09:49:59.476Z,49.90
2023-05-21T09:54:04.620Z,50.51
2023-05-21T09:58:07.681Z,50.00
2023-05-21T10:02:19.194Z,49.84
2023-05-21T10:06:25.349Z,49.47
2023-05-21T10:10:31.043Z,49.25
2023-05-21T10:14:35.963Z,49.58
2023-05-21T10:18:40.340Z,49.17
2023-05-21T10:22:43.772Z,49.21
2023-05-21T10:26:49.104Z,49.42
2023-05-21T10:30:53.576Z,48.71
2023-05-21T10:34:59.418Z,48.82
2023-05-21T10:39:05.158Z,48.97
2023-05-21T10:43:23.047Z,48.88
2023-05-21T10:48:09.820Z,48.47
2023-05-21T10:52:26.139Z,47.85
2023-05-21T10:56:34.130Z,47.26
2023-05-21T11:00:39.247Z,47.61
2023-05-21T11:04:45.597Z,47.45
2023-05-21T11:08:49.268Z,46.98
2023-05-21T11:13:08.242Z,46.67
2023-05-21T11:17:14.663Z,46.22
2023-05-21T11:21:19.625Z,46.47
2023-05-21T11:25:22.761Z,46.65
2023-05-21T11:29:33.428Z,45.61
2023-05-21T11:33:37.892Z,45.41
2023-05-21T11:37:41.777Z,44.56
2023-05-21T11:41:52.693Z,44.37
2023-05-21T11:45:56.307Z,44.23
2023-05-21T11:50:03.095Z,44.83
2023-05-21T11:54:06.226Z,45.22
2023-05-21T11:58:10.753Z,44.62
2023-05-21T12:02:16.804Z,44.54
2023-05-21T12:06:27.805Z,44.35
2023-05-21T12:10:31.206Z,44.87
2023-05-21T12:14:34.467Z,44.11
2023-05-21T12:18:38.177Z,44.39
2023-05-21T12:22:44.323Z,44.00
2023-05-21T12:26:48.030Z,43.65
2023-05-21T12:30:51.254Z,43.94
2023-05-21T12:34:55.629Z,43.21
2023-05-21T12:39:00.634Z,43.17
2023-05-21T12:43:04.157Z,43.04
2023-05-21T12:47:07.907Z,43.41
2023-05-21T12:51:10.959Z,43.66
2023-05-21T12:55:16.089Z,42.64
2023-05-21T12:59:19.131Z,42.16
2023-05-21T13:03:24.889Z,41.53
2023-05-21T13:07:29.234Z,41.25
2023-05-21T13:11:33.658Z,40.23
2023-05-21T13:15:36.913Z,40.43
2023-05-21T13:19:39.973Z,40.37
2023-05-21T13:23:43.005Z,40.31
2023-05-21T13:27:48.001Z,40.08
2023-05-21T13:31:51.145Z,40.44
2023-05-21T13:35:54.179Z,40.16
2023-05-21T13:39:57.702Z,39.39
2023-05-21T13:44:02.314Z,39.81
2023-05-21T13:48:05.927Z,39.79
2023-05-21T13:52:09.682Z,40.40
2023-05-21T13:56:12.882Z,41.15
2023-05-21T14:00:17.379Z,41.04
2023-05-21T14:04:21.499Z,40.80
2023-05-21T14:08:27.565Z,40.40
2023-05-21T14:12:31.076Z,39.98
2023-05-21T14:16:35.626Z,40.57
2023-05-21T14:20:38.755Z,40.50
2023-05-21T14:24:41.794Z,39.96
2023-05-21T14:28:45.520Z,40.00
2023-05-21T14:32:50.090Z,40.69
2023-05-21T14:36:53.141Z,40.48
2023-05-21T14:40:56.652Z,40.02
2023-05-21T14:44:59.802Z,40.23
2023-05-21T14:49:04.294Z,40.22
2023-05-21T14:53:07.615Z,40.77
2023-05-21T14:57:10.860Z,40.47
2023-05-21T15:01:14.040Z,40.70
2023-05-21T15:05:19.323Z,40.14
2023-05-21T15:09:22.430Z,40.58
2023-05-21T15:13:27.191Z,41.01
2023-05-21T15:17:30.366Z,40.76
2023-05-21T15:21:34.832Z,40.83
2023-05-21T15:25:38.005Z,39.99
2023-05-21T15:29:41.200Z,40.48
2023-05-21T15:33:44.235Z,40.67
2023-05-21T15:37:48.707Z,40.51
2023-05-21T15:41:53.542Z,40.50
2023-05-21T15:45:56.584Z,40.31
2023-05-21T15:50:00.463Z,40.48
2023-05-21T15:54:05.167Z,40.48
2023-05-21T15:58:08.298Z,41.01
2023-05-21T16:02:11.352Z,41.26
2023-05-21T16:06:14.417Z,42.01
2023-05-21T16:10:19.046Z,41.51
2023-05-21T16:14:23.637Z,40.74
2023-05-21T16:18:26.730Z,41.23
2023-05-21T16:22:29.813Z,41.46
2023-05-21T16:26:34.240Z,41.56
2023-05-21T16:30:37.250Z,41.85
2023-05-21T16:34:40.346Z,42.42
2023-05-21T16:38:44.381Z,42.26
2023-05-21T16:42:48.879Z,42.48
2023-05-21T16:46:51.898Z,42.76
2023-05-21T16:50:55.449Z,42.76
2023-05-21T16:54:58.523Z,43.37
2023-05-21T16:59:03.018Z,43.12
2023-05-21T17:03:06.345Z,43.03
2023-05-21T17:07:09.415Z,43.77
2023-05-21T17:11:12.516Z,43.49
2023-05-21T17:15:17.128Z,43.59
2023-05-21T17:19:23.218Z,44.04
2023-05-21T17:23:26.354Z,43.67
2023-05-21T17:27:29.396Z,44.32
2023-05-21T17:31:33.936Z,44.42
2023-05-21T17:35:37.368Z,44.95
2023-05-21T17:39:42.349Z,44.68
2023-05-21T17:43:45.663Z,45.42
2023-05-21T17:47:50.233Z,45.39
2023-05-21T17:51:54.027Z,46.32
2023-05-21T17:55:57.065Z,46.24
2023-05-21T18:00:00.155Z,46.15
2023-05-21T18:04:05.670Z,45.88
2023-05-21T18:08:09.981Z,46.89
2023-05-21T18:12:13.013Z,47.07
2023-05-21T18:16:16.283Z,47.54
2023-05-21T18:20:20.821Z,47.23
2023-05-21T18:24:23.850Z,48.13
2023-05-21T18:28:27.573Z,48.74
2023-05-21T18:32:30.734Z,48.27
2023-05-21T18:36:38.854Z,48.72
2023-05-21T18:40:41.938Z,49.32
2023-05-21T18:44:46.075Z,49.55
2023-05-21T18:48:49.573Z,50.05
2023-05-21T18:52:55.440Z,50.43
2023-05-21T18:57:00.452Z,50.63
2023-05-21T19:01:03.725Z,50.50
2023-05-21T19:05:08.102Z,52.32
2023-05-21T19:09:19.005Z,52.68
2023-05-21T19:13:26.301Z,52.98
2023-05-21T19:17:29.533Z,53.09
2023-05-21T19:21:32.779Z,53.50
2023-05-21T19:25:37.279Z,53.66
2023-05-21T19:29:40.385Z,53.31
2023-05-21T19:33:43.499Z,53.65
2023-05-21T19:37:47.184Z,53.45
2023-05-21T19:41:52.965Z,53.43
2023-05-21T19:45:56.083Z,53.58
2023-05-21T19:49:59.145Z,54.21
2023-05-21T19:54:02.396Z,54.03
2023-05-21T19:58:06.826Z,54.54
2023-05-21T20:02:15.088Z,54.60
2023-05-21T20:06:20.550Z,56.24
2023-05-21T20:10:23.646Z,56.37
2023-05-21T20:14:28.064Z,57.24
2023-05-21T20:18:31.262Z,57.54
2023-05-21T20:22:34.283Z,57.68
2023-05-21T20:26:37.289Z,57.59
2023-05-21T20:30:55.216Z,57.45
2023-05-21T20:35:03.375Z,57.97
2023-05-21T20:39:07.098Z,57.39
2023-05-21T20:43:11.989Z,57.31
2023-05-21T20:47:16.452Z,57.40
2023-05-21T20:51:19.493Z,57.88
2023-05-21T20:55:22.764Z,58.39
2023-05-21T20:59:26.945Z,59.44
2023-05-21T21:03:34.381Z,59.23
2023-05-21T21:07:37.709Z,59.31
2023-05-21T21:11:40.832Z,59.29
2023-05-21T21:15:44.271Z,59.56
2023-05-21T21:19:48.840Z,60.09
2023-05-21T21:23:51.883Z,60.25
2023-05-21T21:27:54.934Z,60.54
2023-05-21T21:31:58.602Z,60.67
2023-05-21T21:36:03.013Z,60.71
2023-05-21T21:40:07.378Z,60.50
2023-05-21T21:44:10.512Z,61.13
2023-05-21T21:48:13.560Z,61.46
2023-05-21T21:52:18.928Z,61.47
2023-05-21T21:56:22.113Z,61.60
2023-05-21T22:00:26.885Z,61.75
2023-05-21T22:04:30.116Z,62.12
2023-05-21T22:08:34.568Z,62.46
2023-05-21T22:12:37.663Z,62.49
2023-05-21T22:16:41.581Z,62.46
2023-05-21T22:20:46.100Z,62.96
2023-05-21T22:24:50.532Z,63.14
2023-05-21T22:28:54.008Z,63.17
2023-05-21T22:32:57.821Z,63.40
2023-05-21T22:37:01.423Z,63.81
2023-05-21T22:41:05.838Z,63.79
2023-05-21T22:45:09.731Z,64.05
2023-05-21T22:49:12.775Z,64.36
2023-05-21T22:53:15.776Z,64.65
2023-05-21T22:57:20.237Z,64.66
2023-05-21T23:01:23.980Z,64.65
2023-05-21T23:05:27.092Z,65.11
2023-05-21T23:09:30.223Z,65.23
2023-05-21T23:13:34.717Z,65.25
2023-05-21T23:17:38.101Z,65.50
2023-05-21T23:21:41.653Z,65.67
2023-05-21T23:25:44.849Z,65.78
2023-05-21T23:29:49.311Z,65.74
2023-05-21T23:33:52.578Z,65.76
2023-05-21T23:37:55.777Z,65.91
2023-05-21T23:41:58.958Z,66.22
2023-05-21T23:46:03.428Z,66.36
2023-05-21T23:50:07.880Z,66.40
2023-05-21T23:54:10.970Z,66.67
2023-05-21T23:58:14.057Z,66.73
